createdAt,value
2018-12-04T00:00:24.083Z,3.63
2018-12-04T00:02:50.518Z,4.23
2018-12-04T00:05:16.934Z,3.97
2018-12-04T00:07:43.394Z,3.77
2018-12-04T00:10:09.811Z,4.33
2018-12-04T00:12:36.201Z,4.30
2018-12-04T00:15:03.377Z,4.73
2018-12-04T00:17:29.836Z,5.67
2018-12-04T00:19:56.404Z,4.43
2018-12-04T00:22:22.764Z,4.43
2018-12-04T00:24:49.209Z,4.57
2018-12-04T00:27:15.617Z,5.83
2018-12-04T00:29:42.015Z,4.23
2018-12-04T00:32:08.433Z,4.67
2018-12-04T00:34:34.873Z,4.60
2018-12-04T00:37:01.341Z,4.77
2018-12-04T00:39:27.803Z,4.30
2018-12-04T00:41:54.286Z,4.57
2018-12-04T00:44:20.703Z,4.43
2018-12-04T00:46:48.319Z,4.70
2018-12-04T00:49:14.757Z,4.40
2018-12-04T00:51:41.209Z,5.23
2018-12-04T00:54:07.654Z,4.70
2018-12-04T00:56:34.050Z,4.90
2018-12-04T00:59:00.488Z,4.90
2018-12-04T01:01:26.951Z,4.17
2018-12-04T01:03:53.801Z,4.60
2018-12-04T01:06:20.304Z,5.07
2018-12-04T01:08:46.686Z,4.37
2018-12-04T01:11:13.186Z,4.57
2018-12-04T01:13:39.605Z,4.57
2018-12-04T01:16:05.999Z,4.37
2018-12-04T01:18:32.522Z,4.60
2018-12-04T01:20:58.871Z,4.27
2018-12-04T01:23:25.483Z,4.47
2018-12-04T01:25:51.866Z,4.73
2018-12-04T01:28:18.290Z,5.20
2018-12-04T01:30:44.908Z,4.53
2018-12-04T01:33:11.327Z,3.63
2018-12-04T01:35:37.802Z,4.70
2018-12-04T01:38:04.235Z,4.87
2018-12-04T01:40:30.632Z,3.97
2018-12-04T01:42:57.075Z,4.00
2018-12-04T01:45:23.551Z,3.73
2018-12-04T01:47:49.964Z,4.00
2018-12-04T01:50:16.470Z,4.10
2018-12-04T01:52:43.016Z,4.10
2018-12-04T01:55:09.459Z,4.10
2018-12-04T01:57:35.861Z,5.07
2018-12-04T02:00:02.586Z,4.10
2018-12-04T02:02:29.435Z,4.93
2018-12-04T02:04:55.822Z,4.17
2018-12-04T02:07:22.291Z,4.40
2018-12-04T02:09:48.699Z,3.87
2018-12-04T02:12:15.166Z,4.93
2018-12-04T02:14:41.685Z,4.07
2018-12-04T02:17:08.157Z,4.00
2018-12-04T02:19:35.537Z,5.07
2018-12-04T02:22:01.991Z,4.30
2018-12-04T02:24:28.401Z,4.30
2018-12-04T02:26:54.890Z,4.50
2018-12-04T02:29:21.344Z,3.80
2018-12-04T02:31:47.795Z,4.00
2018-12-04T02:34:14.329Z,4.20
2018-12-04T02:36:40.715Z,4.67
2018-12-04T02:39:07.302Z,4.23
2018-12-04T02:41:34.668Z,4.23
2018-12-04T02:44:01.108Z,4.33
2018-12-04T02:46:27.523Z,3.60
2018-12-04T02:48:54.222Z,3.50
2018-12-04T02:51:20.662Z,4.40
2018-12-04T02:53:47.123Z,3.43
2018-12-04T02:56:13.676Z,3.47
2018-12-04T02:58:40.142Z,3.03
2018-12-04T03:01:06.595Z,2.73
2018-12-04T03:03:33.018Z,2.73
2018-12-04T03:05:59.604Z,2.80
2018-12-04T03:08:26.184Z,2.60
2018-12-04T03:10:52.745Z,2.77
2018-12-04T03:13:19.424Z,2.67
2018-12-04T03:15:45.862Z,2.60
2018-12-04T03:18:12.253Z,3.13
2018-12-04T03:20:38.690Z,2.60
2018-12-04T03:23:06.021Z,2.10
2018-12-04T03:25:32.454Z,2.20
2018-12-04T03:27:58.855Z,2.70
2018-12-04T03:30:25.325Z,2.20
2018-12-04T03:32:51.716Z,2.53
2018-12-04T03:35:18.183Z,2.37
2018-12-04T03:37:44.583Z,2.33
2018-12-04T03:40:11.026Z,2.20
2018-12-04T03:42:37.500Z,2.50
2018-12-04T03:45:04.646Z,2.30
2018-12-04T03:47:31.078Z,2.30
2018-12-04T03:49:57.522Z,2.23
2018-12-04T03:52:23.912Z,2.47
2018-12-04T03:54:50.357Z,2.17
2018-12-04T03:57:17.051Z,2.33
2018-12-04T03:59:43.712Z,2.10
2018-12-04T04:02:10.167Z,2.47
2018-12-04T04:04:37.551Z,2.30
2018-12-04T04:07:04.082Z,3.20
2018-12-04T04:09:31.451Z,2.87
2018-12-04T04:11:57.829Z,2.13
2018-12-04T04:14:24.196Z,2.03
2018-12-04T04:16:50.873Z,2.60
2018-12-04T04:19:17.360Z,2.07
2018-12-04T04:21:43.917Z,1.97
2018-12-04T04:24:10.328Z,1.90
2018-12-04T04:26:36.765Z,1.77
2018-12-04T04:29:03.194Z,2.33
2018-12-04T04:31:30.506Z,1.80
2018-12-04T04:33:56.953Z,2.00
2018-12-04T04:36:23.381Z,1.73
2018-12-04T04:38:49.856Z,1.90
2018-12-04T04:41:16.251Z,1.97
2018-12-04T04:43:42.696Z,1.30
2018-12-04T04:46:09.207Z,1.77
2018-12-04T04:48:36.460Z,2.50
2018-12-04T04:51:02.871Z,1.73
2018-12-04T04:53:29.403Z,1.73
2018-12-04T04:55:55.885Z,1.47
2018-12-04T04:58:22.697Z,1.50
2018-12-04T05:00:49.229Z,1.37
2018-12-04T05:03:15.654Z,1.93
2018-12-04T05:05:42.237Z,1.50
2018-12-04T05:08:08.752Z,1.20
2018-12-04T05:10:35.283Z,1.60
2018-12-04T05:13:01.867Z,1.60
2018-12-04T05:15:28.244Z,1.67
2018-12-04T05:17:54.811Z,1.33
2018-12-04T05:20:21.189Z,2.17
2018-12-04T05:22:47.644Z,1.60
2018-12-04T05:25:14.108Z,2.13
2018-12-04T05:27:40.526Z,1.50
2018-12-04T05:30:08.327Z,1.90
2018-12-04T05:32:34.783Z,1.50
2018-12-04T05:35:01.434Z,1.57
2018-12-04T05:37:27.872Z,1.60
2018-12-04T05:39:54.433Z,1.70
2018-12-04T05:42:20.921Z,2.10
2018-12-04T05:44:47.797Z,1.70
2018-12-04T05:47:15.147Z,2.40
2018-12-04T05:49:41.552Z,1.40
2018-12-04T05:52:08.018Z,1.30
2018-12-04T05:54:35.325Z,1.43
2018-12-04T05:57:01.987Z,1.60
2018-12-04T05:59:29.653Z,1.40
2018-12-04T06:01:59.475Z,1.60
2018-12-04T06:04:26.064Z,1.80
2018-12-04T06:06:52.481Z,1.47
2018-12-04T06:09:19.076Z,1.77
2018-12-04T06:11:45.496Z,1.70
2018-12-04T06:14:11.856Z,1.40
2018-12-04T06:16:38.360Z,1.73
2018-12-04T06:19:05.298Z,1.47
2018-12-04T06:21:31.747Z,1.60
2018-12-04T06:23:58.356Z,1.90
2018-12-04T06:26:24.867Z,1.50
2018-12-04T06:28:51.353Z,1.53
2018-12-04T06:31:17.849Z,2.27
2018-12-04T06:33:44.320Z,1.97
2018-12-04T06:36:10.767Z,1.60
2018-12-04T06:38:37.211Z,1.40
2018-12-04T06:41:04.181Z,2.13
2018-12-04T06:43:31.593Z,1.90
2018-12-04T06:45:58.192Z,1.50
2018-12-04T06:48:24.944Z,2.23
2018-12-04T06:50:51.445Z,2.00
2018-12-04T06:53:17.934Z,1.80
2018-12-04T06:55:44.476Z,1.87
2018-12-04T06:58:11.099Z,2.23
2018-12-04T07:00:37.564Z,2.50
2018-12-04T07:03:03.965Z,2.33
2018-12-04T07:05:30.445Z,2.50
2018-12-04T07:07:57.110Z,2.20
2018-12-04T07:10:23.565Z,2.30
2018-12-04T07:12:50.107Z,2.30
2018-12-04T07:15:16.950Z,2.33
2018-12-04T07:17:44.329Z,2.07
2018-12-04T07:20:11.698Z,1.60
2018-12-04T07:22:38.486Z,2.33
2018-12-04T07:25:05.230Z,1.90
2018-12-04T07:27:31.656Z,2.20
2018-12-04T07:29:58.194Z,1.97
2018-12-04T07:32:24.607Z,2.17
2018-12-04T07:34:51.212Z,2.03
2018-12-04T07:37:17.732Z,2.43
2018-12-04T07:39:44.307Z,2.20
2018-12-04T07:42:12.787Z,2.03
2018-12-04T07:44:39.263Z,2.10
2018-12-04T07:47:05.896Z,1.90
2018-12-04T07:49:32.428Z,2.60
2018-12-04T07:51:58.910Z,1.73
2018-12-04T07:54:25.401Z,1.63
2018-12-04T07:56:52.881Z,1.87
2018-12-04T07:59:20.012Z,2.17
2018-12-04T08:01:46.713Z,2.40
2018-12-04T08:04:13.143Z,1.97
2018-12-04T08:06:39.536Z,2.50
2018-12-04T08:09:06.426Z,2.10
2018-12-04T08:11:33.756Z,1.90
2018-12-04T08:14:00.400Z,2.20
2018-12-04T08:16:26.781Z,1.77
2018-12-04T08:18:53.165Z,1.43
2018-12-04T08:21:19.726Z,1.80
2018-12-04T08:23:46.115Z,1.93
2018-12-04T08:26:12.799Z,1.80
2018-12-04T08:28:39.463Z,1.93
2018-12-04T08:31:05.825Z,2.30
2018-12-04T08:33:32.270Z,1.90
2018-12-04T08:35:58.713Z,2.23
2018-12-04T08:38:25.375Z,1.77
2018-12-04T08:40:51.773Z,3.33
2018-12-04T08:43:18.227Z,3.37
2018-12-04T08:45:44.671Z,3.07
2018-12-04T08:48:11.512Z,1.37
2018-12-04T08:50:37.938Z,2.00
2018-12-04T08:53:04.426Z,2.53
2018-12-04T08:55:30.852Z,1.80
2018-12-04T08:57:57.329Z,1.80
2018-12-04T09:00:23.718Z,1.90
2018-12-04T09:02:50.122Z,1.33
2018-12-04T09:05:16.629Z,1.67
2018-12-04T09:07:43.215Z,1.80
2018-12-04T09:10:09.699Z,1.57
2018-12-04T09:12:36.133Z,1.93
2018-12-04T09:15:03.022Z,1.37
2018-12-04T09:17:29.559Z,1.77
2018-12-04T09:19:56.047Z,2.27
2018-12-04T09:22:22.583Z,1.70
2018-12-04T09:24:49.059Z,2.27
2018-12-04T09:27:15.593Z,1.90
2018-12-04T09:29:42.858Z,1.63
2018-12-04T09:32:09.389Z,1.53
2018-12-04T09:34:35.810Z,1.90
2018-12-04T09:37:02.179Z,2.00
2018-12-04T09:39:28.607Z,2.00
2018-12-04T09:41:55.295Z,1.60
2018-12-04T09:44:21.820Z,1.63
2018-12-04T09:46:48.418Z,1.33
2018-12-04T09:49:14.930Z,1.80
2018-12-04T09:51:41.447Z,1.73
2018-12-04T09:54:07.987Z,2.00
2018-12-04T09:56:34.421Z,1.53
2018-12-04T09:59:01.362Z,2.60
2018-12-04T10:01:27.790Z,2.10
2018-12-04T10:03:54.275Z,1.30
2018-12-04T10:06:20.676Z,1.63
2018-12-04T10:08:47.432Z,1.80
2018-12-04T10:11:13.901Z,1.43
2018-12-04T10:13:40.498Z,1.40
2018-12-04T10:16:07.021Z,1.40
2018-12-04T10:18:33.727Z,2.33
2018-12-04T10:21:00.506Z,1.80
2018-12-04T10:23:27.017Z,1.60
2018-12-04T10:25:53.436Z,1.73
2018-12-04T10:28:19.989Z,1.40
2018-12-04T10:30:52.644Z,1.70
2018-12-04T10:33:19.112Z,2.60
2018-12-04T10:35:45.556Z,2.03
2018-12-04T10:38:12.006Z,1.97
2018-12-04T10:40:38.409Z,1.57
2018-12-04T10:43:04.818Z,1.77
2018-12-04T10:45:31.281Z,1.30
2018-12-04T10:47:57.805Z,1.33
2018-12-04T10:50:24.300Z,2.30
2018-12-04T10:52:51.689Z,5.67
2018-12-04T10:55:18.293Z,1.40
2018-12-04T10:57:44.758Z,1.83
2018-12-04T11:00:17.203Z,2.03
2018-12-04T11:02:45.696Z,2.10
2018-12-04T11:05:12.232Z,2.03
2018-12-04T11:07:38.758Z,2.47
2018-12-04T11:10:05.325Z,2.33
2018-12-04T11:12:31.788Z,2.00
2018-12-04T11:14:59.039Z,1.47
2018-12-04T11:17:25.468Z,1.73
2018-12-04T11:19:51.904Z,1.30
2018-12-04T11:22:18.418Z,1.90
2018-12-04T11:24:45.381Z,1.70
2018-12-04T11:27:13.213Z,1.37
2018-12-04T11:29:39.756Z,1.40
2018-12-04T11:32:06.185Z,1.70
2018-12-04T11:34:32.644Z,1.43
2018-12-04T11:36:59.984Z,1.77
2018-12-04T11:39:26.799Z,1.77
2018-12-04T11:41:53.262Z,1.40
2018-12-04T11:44:19.844Z,1.90
2018-12-04T11:46:46.509Z,1.57
2018-12-04T11:49:13.114Z,1.97
2018-12-04T11:51:40.703Z,2.27
2018-12-04T11:54:07.318Z,1.90
2018-12-04T11:56:33.766Z,1.20
2018-12-04T11:59:01.730Z,1.90
2018-12-04T12:01:29.191Z,1.70
2018-12-04T12:03:55.815Z,1.10
2018-12-04T12:06:22.276Z,1.50
2018-12-04T12:08:48.905Z,2.00
2018-12-04T12:11:15.264Z,1.07
2018-12-04T12:13:41.722Z,1.57
2018-12-04T12:16:08.140Z,1.10
2018-12-04T12:18:34.632Z,1.47
2018-12-04T12:21:01.435Z,1.37
2018-12-04T12:23:27.934Z,1.50
2018-12-04T12:25:54.495Z,1.03
2018-12-04T12:28:21.116Z,1.20
2018-12-04T12:30:47.754Z,1.47
2018-12-04T12:33:14.322Z,1.03
2018-12-04T12:35:40.844Z,1.37
2018-12-04T12:38:07.359Z,1.00
2018-12-04T12:40:33.982Z,1.10
2018-12-04T12:43:00.404Z,0.80
2018-12-04T12:45:27.047Z,1.10
2018-12-04T12:47:53.470Z,0.90
2018-12-04T12:50:20.141Z,1.13
2018-12-04T12:52:46.642Z,1.20
2018-12-04T12:55:13.109Z,0.87
2018-12-04T12:57:39.665Z,0.90
2018-12-04T13:00:07.269Z,1.13
2018-12-04T13:02:34.015Z,1.03
2018-12-04T13:05:01.301Z,0.80
2018-12-04T13:07:27.696Z,1.00
2018-12-04T13:09:54.165Z,2.00
2018-12-04T13:12:20.625Z,1.50
2018-12-04T13:14:47.089Z,0.90
2018-12-04T13:17:13.561Z,1.30
2018-12-04T13:19:40.094Z,1.30
2018-12-04T13:22:06.562Z,1.30
2018-12-04T13:24:33.992Z,1.00
2018-12-04T13:27:01.476Z,1.10
2018-12-04T13:29:28.042Z,1.20
2018-12-04T13:31:54.543Z,1.10
2018-12-04T13:34:21.585Z,1.10
2018-12-04T13:36:48.116Z,1.20
2018-12-04T13:39:14.596Z,1.20
2018-12-04T13:41:41.398Z,1.47
2018-12-04T13:44:07.876Z,1.00
2018-12-04T13:46:34.367Z,1.43
2018-12-04T13:49:00.904Z,1.70
2018-12-04T13:51:27.759Z,1.67
2018-12-04T13:53:54.350Z,1.13
2018-12-04T13:56:20.717Z,1.50
2018-12-04T13:58:48.982Z,1.30
2018-12-04T14:01:15.720Z,1.47
2018-12-04T14:03:42.381Z,1.40
2018-12-04T14:06:08.854Z,1.43
2018-12-04T14:08:35.297Z,1.10
2018-12-04T14:11:01.791Z,1.10
2018-12-04T14:13:29.090Z,1.17
2018-12-04T14:15:56.903Z,1.07
2018-12-04T14:18:23.914Z,1.63
2018-12-04T14:20:50.408Z,1.20
2018-12-04T14:23:17.880Z,1.37
2018-12-04T14:25:44.539Z,1.80
2018-12-04T14:28:11.013Z,1.30
2018-12-04T14:30:38.702Z,1.27
2018-12-04T14:33:05.223Z,1.10
2018-12-04T14:35:31.626Z,0.97
2018-12-04T14:37:58.269Z,1.50
2018-12-04T14:40:24.868Z,0.90
2018-12-04T14:42:53.481Z,0.70
2018-12-04T14:45:21.064Z,0.90
2018-12-04T14:47:47.792Z,1.00
2018-12-04T14:50:14.761Z,1.20
2018-12-04T14:52:41.582Z,0.93
2018-12-04T14:55:08.624Z,1.40
2018-12-04T14:57:35.444Z,1.00
2018-12-04T15:00:03.557Z,1.20
2018-12-04T15:02:30.039Z,1.33
2018-12-04T15:04:56.436Z,1.40
2018-12-04T15:07:23.034Z,2.83
2018-12-04T15:09:49.758Z,1.10
2018-12-04T15:12:16.273Z,0.97
2018-12-04T15:14:42.822Z,0.87
2018-12-04T15:17:10.224Z,1.00
2018-12-04T15:19:36.812Z,1.40
2018-12-04T15:22:10.283Z,1.30
2018-12-04T15:24:37.653Z,1.53
2018-12-04T15:27:04.330Z,1.27
2018-12-04T15:29:30.927Z,0.80
2018-12-04T15:31:57.695Z,1.70
2018-12-04T15:34:24.271Z,1.10
2018-12-04T15:36:56.476Z,1.00
2018-12-04T15:39:19.869Z,1.83
2018-12-04T15:41:46.386Z,1.53
2018-12-04T15:44:12.912Z,1.20
2018-12-04T15:46:39.560Z,1.40
2018-12-04T15:49:06.032Z,1.63
2018-12-04T15:51:32.554Z,1.47
2018-12-04T15:53:58.959Z,1.50
2018-12-04T15:56:25.870Z,1.37
2018-12-04T15:58:52.321Z,2.33
2018-12-04T16:01:18.855Z,1.27
2018-12-04T16:03:45.488Z,1.10
2018-12-04T16:06:12.267Z,1.23
2018-12-04T16:11:18.421Z,1.00
2018-12-04T16:13:44.949Z,1.63
2018-12-04T16:16:11.787Z,2.03
2018-12-04T16:18:38.285Z,1.83
2018-12-04T16:21:06.645Z,1.77
2018-12-04T16:23:33.777Z,1.70
2018-12-04T16:26:00.626Z,1.83
2018-12-04T16:28:27.745Z,1.57
2018-12-04T16:30:54.411Z,1.70
2018-12-04T16:33:20.887Z,1.37
2018-12-04T16:35:47.393Z,2.10
2018-12-04T16:38:13.835Z,2.23
2018-12-04T16:40:41.217Z,1.60
2018-12-04T16:43:07.618Z,1.47
2018-12-04T16:45:34.028Z,1.40
2018-12-04T16:48:00.494Z,1.83
2018-12-04T16:50:28.953Z,1.50
2018-12-04T16:52:56.928Z,1.20
2018-12-04T16:55:23.645Z,1.10
2018-12-04T16:57:50.096Z,1.50
2018-12-04T17:00:17.092Z,1.13
2018-12-04T17:02:44.491Z,1.20
2018-12-04T17:05:11.259Z,1.70
2018-12-04T17:07:37.755Z,1.40
2018-12-04T17:10:06.007Z,1.27
2018-12-04T17:12:33.990Z,1.33
2018-12-04T17:15:00.480Z,1.20
2018-12-04T17:17:27.593Z,1.33
2018-12-04T17:19:54.855Z,1.10
2018-12-04T17:22:21.435Z,1.10
2018-12-04T17:24:48.116Z,1.50
2018-12-04T17:27:15.400Z,1.00
2018-12-04T17:29:41.919Z,1.00
2018-12-04T17:32:08.440Z,1.10
2018-12-04T17:34:35.002Z,1.20
2018-12-04T17:37:01.704Z,1.13
2018-12-04T17:39:28.338Z,1.37
2018-12-04T17:41:54.928Z,1.10
2018-12-04T17:44:21.568Z,0.83
2018-12-04T17:46:48.799Z,0.80
2018-12-04T17:49:15.627Z,1.00
2018-12-04T17:51:43.529Z,1.10
2018-12-04T17:54:10.144Z,1.37
2018-12-04T17:56:37.970Z,1.10
2018-12-04T17:59:05.215Z,0.97
2018-12-04T18:01:35.179Z,1.20
2018-12-04T18:04:02.987Z,1.00
2018-12-04T18:06:30.706Z,1.70
2018-12-04T18:08:57.401Z,1.60
2018-12-04T18:11:24.049Z,1.30
2018-12-04T18:13:50.594Z,1.20
2018-12-04T18:16:17.742Z,1.40
2018-12-04T18:18:44.289Z,1.00
2018-12-04T18:21:11.144Z,0.80
2018-12-04T18:23:38.950Z,1.07
2018-12-04T18:26:07.351Z,1.70
2018-12-04T18:28:34.899Z,1.30
2018-12-04T18:31:01.551Z,1.20
2018-12-04T18:33:31.578Z,1.13
2018-12-04T18:35:59.406Z,1.00
2018-12-04T18:38:27.111Z,0.97
2018-12-04T18:40:56.707Z,1.30
2018-12-04T18:43:24.076Z,1.13
2018-12-04T18:45:52.303Z,1.00
2018-12-04T18:48:18.752Z,1.07
2018-12-04T18:50:52.622Z,1.10
2018-12-04T18:53:19.071Z,1.33
2018-12-04T18:55:46.953Z,0.90
2018-12-04T18:58:13.560Z,0.80
2018-12-04T19:00:41.072Z,0.87
2018-12-04T19:03:07.649Z,0.70
2018-12-04T19:05:34.300Z,0.90
2018-12-04T19:08:03.938Z,1.00
2018-12-04T19:10:30.812Z,0.83
2018-12-04T19:12:57.492Z,1.00
2018-12-04T19:15:23.964Z,0.77
2018-12-04T19:17:50.440Z,1.00
2018-12-04T19:20:17.355Z,1.10
2018-12-04T19:22:43.918Z,1.33
2018-12-04T19:25:10.351Z,1.20
2018-12-04T19:27:36.912Z,1.00
2018-12-04T19:30:06.939Z,1.10
2018-12-04T19:32:33.469Z,1.53
2018-12-04T19:35:00.158Z,1.40
2018-12-04T19:37:26.825Z,1.37
2018-12-04T19:39:53.374Z,1.00
2018-12-04T19:42:19.957Z,1.47
2018-12-04T19:44:46.414Z,1.13
2018-12-04T19:47:15.531Z,1.40
2018-12-04T19:49:42.077Z,1.93
2018-12-04T19:52:08.670Z,1.90
2018-12-04T19:54:35.055Z,1.17
2018-12-04T19:57:01.528Z,1.00
2018-12-04T19:59:28.180Z,1.50
2018-12-04T20:01:54.600Z,0.80
2018-12-04T20:04:21.122Z,1.27
2018-12-04T20:06:47.727Z,1.10
2018-12-04T20:09:14.351Z,1.30
2018-12-04T20:11:40.862Z,1.20
2018-12-04T20:14:07.377Z,1.40
2018-12-04T20:16:36.651Z,1.03
2018-12-04T20:19:03.822Z,1.30
2018-12-04T20:21:30.442Z,1.57
2018-12-04T20:23:58.561Z,1.30
2018-12-04T20:26:25.784Z,1.57
2018-12-04T20:28:52.630Z,2.07
2018-12-04T20:31:19.339Z,1.10
2018-12-04T20:33:46.770Z,1.70
2018-12-04T20:36:13.408Z,1.33
2018-12-04T20:38:40.480Z,1.20
2018-12-04T20:41:07.896Z,1.40
2018-12-04T20:46:08.927Z,1.20
2018-12-04T20:48:35.430Z,1.30
2018-12-04T20:51:01.935Z,1.07
2018-12-04T20:53:28.890Z,0.90
2018-12-04T20:55:55.613Z,0.90
2018-12-04T20:58:22.186Z,1.30
2018-12-04T21:00:49.779Z,1.10
2018-12-04T21:03:16.330Z,1.20
2018-12-04T21:05:42.767Z,0.90
2018-12-04T21:08:09.144Z,1.20
2018-12-04T21:10:36.547Z,1.00
2018-12-04T21:13:03.004Z,1.10
2018-12-04T21:15:29.478Z,0.90
2018-12-04T21:17:55.955Z,0.80
2018-12-04T21:20:24.262Z,0.73
2018-12-04T21:22:50.787Z,0.77
2018-12-04T21:25:17.235Z,0.90
2018-12-04T21:27:49.754Z,1.70
2018-12-04T21:30:22.108Z,0.90
2018-12-04T21:32:54.632Z,1.00
2018-12-04T21:35:26.982Z,0.90
2018-12-04T21:37:59.493Z,2.07
2018-12-04T21:40:32.034Z,0.87
2018-12-04T21:43:04.516Z,0.83
2018-12-04T21:45:37.053Z,0.77
2018-12-04T21:48:04.708Z,0.70
2018-12-04T21:50:31.187Z,0.80
2018-12-04T21:52:57.915Z,0.70
2018-12-04T21:55:25.406Z,0.80
2018-12-04T21:57:51.754Z,0.70
2018-12-04T22:00:18.642Z,0.90
2018-12-04T22:02:45.050Z,0.70
2018-12-04T22:05:11.460Z,0.87
2018-12-04T22:07:37.811Z,1.00
2018-12-04T22:10:05.878Z,0.70
2018-12-04T22:12:32.291Z,1.00
2018-12-04T22:14:58.656Z,0.83
2018-12-04T22:17:25.123Z,0.80
2018-12-04T22:19:51.598Z,0.80
2018-12-04T22:22:18.073Z,0.70
2018-12-04T22:24:44.490Z,0.83
2018-12-04T22:27:11.315Z,0.90
2018-12-04T22:29:38.176Z,0.63
2018-12-04T22:32:04.800Z,0.70
2018-12-04T22:34:31.298Z,0.57
2018-12-04T22:36:57.708Z,0.90
2018-12-04T22:39:24.148Z,0.97
2018-12-04T22:41:51.747Z,1.10
2018-12-04T22:44:18.103Z,0.53
2018-12-04T22:46:44.445Z,0.70
2018-12-04T22:49:11.099Z,0.90
2018-12-04T22:51:37.463Z,1.00
2018-12-04T22:54:04.022Z,1.00
2018-12-04T22:56:30.430Z,0.87
2018-12-04T22:58:56.915Z,1.13
2018-12-04T23:01:27.554Z,0.83
2018-12-04T23:03:54.018Z,1.10
2018-12-04T23:06:20.462Z,0.90
2018-12-04T23:08:48.986Z,1.00
2018-12-04T23:11:15.476Z,0.70
2018-12-04T23:13:41.880Z,1.37
2018-12-04T23:16:08.538Z,0.90
2018-12-04T23:18:34.907Z,0.83
2018-12-04T23:21:02.171Z,0.80
2018-12-04T23:23:28.837Z,0.63
2018-12-04T23:25:55.281Z,0.70
2018-12-04T23:28:21.738Z,0.60
2018-12-04T23:30:48.309Z,1.10
2018-12-04T23:33:15.064Z,0.70
2018-12-04T23:35:41.532Z,0.80
2018-12-04T23:38:08.088Z,1.20
2018-12-04T23:40:34.589Z,1.10
2018-12-04T23:43:16.180Z,1.20
2018-12-04T23:45:42.899Z,0.90
2018-12-04T23:48:09.480Z,0.70
2018-12-04T23:50:35.833Z,0.97
2018-12-04T23:53:02.258Z,0.77
2018-12-04T23:55:28.849Z,0.97
2018-12-04T23:57:56.899Z,0.70
